CFG459X LPMA-EDDM
Flight info
| Callsign | CFG459X |
|---|---|
| Flight time | N/A |
| Altitude | 36000 |
| Route | DEGUN DCT GALPA DCT NARTA DCT ESUTI DCT MAZUK DCT PINOX DCT TOSDI DCT ZMR DCT NEA DCT DGO DCT LPA DCT GOSVI DCT TOPTU DCT TOU/N0447F380 DCT GAI DCT MEN DCT NINUN DCT LATAM DCT ETREK DCT LTP DCT SOPLO DCT OMASI DCT KINNI DCT LAMUR DCT KORED DCT BERSU DCT DITON/N0451F370 DCT NUNRI T103 BETOS BETOS1B |
| Aircraft | A320/M-SDE3FGHIRWY/LB1 |
Departure
| Time | 2026-05-07 11:14 |
|---|---|
| Airport | Cristiano Ronaldo International Airport (LPMA) |
Arrival
| Time | N/A |
|---|---|
| Airport | Munich Airport (EDDM) |
| Time | Latitude | Longitude | Altitude | Speed | Heading |
|---|---|---|---|---|---|
| 2026-05-07 10:51 | 32.69465 | -16.77520 | 176 ft | 0 kts | 137° |
| 2026-05-07 11:06 | 32.69469 | -16.77524 | 176 ft | 4 kts | 138° |
| 2026-05-07 11:06 | 32.69489 | -16.77544 | 176 ft | 4 kts | 144° |
| 2026-05-07 11:07 | 32.69512 | -16.77558 | 176 ft | 4 kts | 173° |
| 2026-05-07 11:07 | 32.69535 | -16.77554 | 176 ft | 3 kts | 224° |
| 2026-05-07 11:07 | 32.69541 | -16.77547 | 176 ft | 0 kts | 227° |
| 2026-05-07 11:10 | 32.69519 | -16.77575 | 176 ft | 12 kts | 227° |
| 2026-05-07 11:10 | 32.69426 | -16.77692 | 176 ft | 26 kts | 226° |
| 2026-05-07 11:11 | 32.69298 | -16.77872 | 176 ft | 29 kts | 249° |
| 2026-05-07 11:11 | 32.69243 | -16.78097 | 176 ft | 28 kts | 224° |
| 2026-05-07 11:11 | 32.69096 | -16.78255 | 176 ft | 28 kts | 224° |
| 2026-05-07 11:11 | 32.68997 | -16.78369 | 176 ft | 14 kts | 221° |
| 2026-05-07 11:12 | 32.68911 | -16.78406 | 176 ft | 12 kts | 204° |
| 2026-05-07 11:12 | 32.68912 | -16.78462 | 176 ft | 8 kts | 354° |
| 2026-05-07 11:12 | 32.68942 | -16.78437 | 176 ft | 0 kts | 44° |
| 2026-05-07 11:13 | 32.69028 | -16.78337 | 176 ft | 48 kts | 44° |
| 2026-05-07 11:13 | 32.69440 | -16.77857 | 177 ft | 115 kts | 45° |
| 2026-05-07 11:13 | 32.70136 | -16.77042 | 217 ft | 160 kts | 44° |
| 2026-05-07 11:14 | 32.70937 | -16.76097 | 790 ft | 164 kts | 49° |
| 2026-05-07 11:14 | 32.71384 | -16.74891 | 1435 ft | 164 kts | 85° |
| 2026-05-07 11:14 | 32.71193 | -16.73569 | 2029 ft | 167 kts | 113° |
| 2026-05-07 11:14 | 32.70729 | -16.72226 | 2305 ft | 187 kts | 111° |
| 2026-05-07 11:15 | 32.70212 | -16.70709 | 2505 ft | 210 kts | 111° |
| 2026-05-07 11:15 | 32.69644 | -16.69021 | 2813 ft | 231 kts | 111° |
| 2026-05-07 11:15 | 32.69032 | -16.67192 | 3258 ft | 246 kts | 111° |
| 2026-05-07 11:15 | 32.68374 | -16.65225 | 3761 ft | 263 kts | 111° |
| 2026-05-07 11:16 | 32.67689 | -16.63182 | 4525 ft | 269 kts | 111° |
| 2026-05-07 11:16 | 32.66993 | -16.61100 | 5336 ft | 273 kts | 111° |
| 2026-05-07 11:16 | 32.66292 | -16.58990 | 6129 ft | 277 kts | 110° |
| 2026-05-07 11:16 | 32.65828 | -16.56767 | 6890 ft | 280 kts | 92° |
| 2026-05-07 11:17 | 32.66033 | -16.54469 | 7645 ft | 283 kts | 72° |
| 2026-05-07 11:17 | 32.66897 | -16.52378 | 8387 ft | 284 kts | 51° |
| 2026-05-07 11:17 | 32.68268 | -16.50676 | 9121 ft | 287 kts | 42° |
| 2026-05-07 11:17 | 32.69726 | -16.49029 | 9850 ft | 292 kts | 42° |
| 2026-05-07 11:18 | 32.71215 | -16.47344 | 10401 ft | 304 kts | 42° |
| 2026-05-07 11:18 | 32.72254 | -16.46168 | 10539 ft | 319 kts | 41° |